Galileo — SX2040 — position and weather

sailwx.info

Track history (hours):
 
Tides and Currents Weather Stations Pressure Air Temp Water Temp Dewpoint Dewpoint Depression Visibility Wind Speed Wind Dir Waves Ship Positions

Galileo

Last reported at 2017-Aug-16 06:05 UTC. Time now 2017-Aug-16 21:47 UTC.
Position N 37°34' E 022°48'.

Length 50 m; draft 3 m.

Type: Passenger vessel. MMSI: 239299000.

Date/timePositionNaut miles runAvg speedWind from/ knotsBaromVisibWave heightAir tempDewpointWater temp
2017-Aug-16 06:05N 37°34' E 022°48'21 1.4
2017-Aug-15 15:39N 37°14' E 022°56'114 3.0
2017-Aug-14 01:40N 36°59' E 025°17'210.1
2017-Aug-14 01:30N 37°01' E 025°18'510.5
2017-Aug-14 01:00N 37°06' E 025°19'5 9.9
2017-Aug-14 00:30N 37°11' E 025°19'5 9.8
2017-Aug-14 00:00N 37°16' E 025°18'510.0
2017-Aug-13 23:30N 37°21' E 025°17'510.1
2017-Aug-13 22:59N 37°26' E 025°17'3 4.6
2017-Aug-13 22:26N 37°28' E 025°20'0 0.0
2017-Aug-13 22:00N 37°28' E 025°20'0 0.0
2017-Aug-13 21:30N 37°28' E 025°20'0 0.0
2017-Aug-13 21:00N 37°28' E 025°20'0 0.0
2017-Aug-13 20:30N 37°28' E 025°20'0 0.0
2017-Aug-13 20:00N 37°28' E 025°20'0 0.0
2017-Aug-13 19:29N 37°28' E 025°20'0 0.0
2017-Aug-13 19:00N 37°28' E 025°20'0 0.0
2017-Aug-13 18:30N 37°28' E 025°20'0 0.0
2017-Aug-13 18:00N 37°28' E 025°20'0 0.0
2017-Aug-13 17:30N 37°28' E 025°20'0 0.0
2017-Aug-13 17:00N 37°28' E 025°20'0 0.0
2017-Aug-13 16:30N 37°28' E 025°20'0 0.0
2017-Aug-13 16:00N 37°28' E 025°20'0 0.0
2017-Aug-13 15:30N 37°28' E 025°20'0 0.0
2017-Aug-13 15:00N 37°28' E 025°20'0 0.0
2017-Aug-13 14:29N 37°28' E 025°20'0 0.0
2017-Aug-13 14:00N 37°28' E 025°20'0 0.0
2017-Aug-13 13:30N 37°28' E 025°20'0 0.0
2017-Aug-13 13:00N 37°28' E 025°20'0 0.0
2017-Aug-13 12:30N 37°28' E 025°20'0 0.0
2017-Aug-13 12:00N 37°28' E 025°20'0 0.0
2017-Aug-13 11:30N 37°28' E 025°20'1 1.8
2017-Aug-13 11:00N 37°27' E 025°19'4 9.0
2017-Aug-13 10:30N 37°24' E 025°15'1 2.5
2017-Aug-13 10:00N 37°23' E 025°15'0 0.0
2017-Aug-13 09:30N 37°23' E 025°15'0 0.0
2017-Aug-13 09:00N 37°23' E 025°15'0 0.0
2017-Aug-13 08:30N 37°23' E 025°15'0 0.0
2017-Aug-13 08:00N 37°23' E 025°15'0 0.0
2017-Aug-13 07:30N 37°23' E 025°15'0 0.0
2017-Aug-13 07:00N 37°23' E 025°15'0 0.0
2017-Aug-13 06:30N 37°23' E 025°15'2 4.6
2017-Aug-13 06:00N 37°22' E 025°12'5 9.7
2017-Aug-13 05:30N 37°24' E 025°06'5 9.5
2017-Aug-13 05:00N 37°26' E 025°01'3 6.2
2017-Aug-13 04:27N 37°26' E 024°57'0 0.0
2017-Aug-12 17:31N 37°26' E 024°57'110.1
2017-Aug-12 17:26N 37°27' E 024°57'5 8.7
2017-Aug-12 16:51N 37°31' E 024°54'3 9.5
2017-Aug-12 16:30N 37°31' E 024°49'51 5.2
2017-Aug-12 06:42N 37°46' E 023°48'2 9.4
2017-Aug-12 06:30N 37°47' E 023°46'5 9.5
2017-Aug-12 06:00N 37°51' E 023°43'4 8.8
2017-Aug-12 05:30N 37°55' E 023°40'1 2.5
2017-Aug-12 05:00N 37°56' E 023°39'0 0.0
2017-Aug-12 04:31N 37°56' E 023°39'0 0.0
2017-Aug-12 04:01N 37°56' E 023°39'0 0.0
2017-Aug-12 03:31N 37°56' E 023°39'0 0.0
2017-Aug-12 03:00N 37°56' E 023°39'0 0.0
2017-Aug-12 02:31N 37°56' E 023°39'0 0.0
2017-Aug-12 02:00N 37°56' E 023°39'0 0.0
2017-Aug-12 01:31N 37°56' E 023°39'0 0.0
2017-Aug-12 01:00N 37°56' E 023°39'0 0.0
2017-Aug-12 00:30N 37°56' E 023°39'0 0.0
2017-Aug-12 00:01N 37°56' E 023°39'0 0.0
2017-Aug-11 23:30N 37°56' E 023°39'0 0.0
2017-Aug-11 23:00N 37°56' E 023°39'0 0.0
2017-Aug-11 22:31N 37°56' E 023°39'0 0.0
2017-Aug-11 22:00N 37°56' E 023°39'0 0.0
2017-Aug-11 21:30N 37°56' E 023°39'0 0.0
2017-Aug-11 21:01N 37°56' E 023°39'0 0.0
2017-Aug-11 20:30N 37°56' E 023°39'0 0.0
2017-Aug-11 20:01N 37°56' E 023°39'0 0.0
2017-Aug-11 19:30N 37°56' E 023°39'0 0.0
2017-Aug-11 19:00N 37°56' E 023°39'0 0.0
2017-Aug-11 18:30N 37°56' E 023°39'0 0.0
2017-Aug-11 18:00N 37°56' E 023°39'0 0.0
2017-Aug-11 17:30N 37°56' E 023°39'0 0.0
2017-Aug-11 17:01N 37°56' E 023°39'0 0.0
2017-Aug-11 16:30N 37°56' E 023°39'0 0.0
2017-Aug-11 16:01N 37°56' E 023°39'0 0.0
2017-Aug-11 15:31N 37°56' E 023°39'0 0.0
2017-Aug-11 15:00N 37°56' E 023°39'0 0.0
2017-Aug-11 14:30N 37°56' E 023°39'0 0.0
2017-Aug-11 13:31N 37°56' E 023°39'0 0.0
2017-Aug-11 13:01N 37°56' E 023°39'0 0.0
2017-Aug-11 12:31N 37°56' E 023°39'0 0.0
2017-Aug-11 12:01N 37°56' E 023°39'0 0.0
2017-Aug-11 11:30N 37°56' E 023°39'0 0.0
2017-Aug-11 11:00N 37°56' E 023°39'0 0.0
2017-Aug-11 10:31N 37°56' E 023°39'0 0.0
2017-Aug-11 10:00N 37°56' E 023°39'0 0.0
2017-Aug-11 09:30N 37°56' E 023°39'0 0.0
2017-Aug-11 09:00N 37°56' E 023°39'0 0.0
2017-Aug-11 08:30N 37°56' E 023°39'0 0.0
2017-Aug-11 08:00N 37°56' E 023°39'0 0.0
2017-Aug-11 07:30N 37°56' E 023°39'0 0.0
2017-Aug-11 07:00N 37°56' E 023°39'0 0.0
2017-Aug-11 06:30N 37°56' E 023°39'0 0.0
2017-Aug-11 06:00N 37°56' E 023°39'0 0.0
2017-Aug-11 05:30N 37°56' E 023°39'0 0.0
2017-Aug-11 05:00N 37°56' E 023°39'0 0.0
2017-Aug-11 04:31N 37°56' E 023°39'0 0.0
2017-Aug-11 04:00N 37°56' E 023°39'0 0.0
2017-Aug-11 03:30N 37°56' E 023°39'0 0.0
2017-Aug-11 03:00N 37°56' E 023°39'0 0.0
2017-Aug-11 02:30N 37°56' E 023°39'0 0.0
2017-Aug-11 02:00N 37°56' E 023°39'0 0.0
2017-Aug-11 01:30N 37°56' E 023°39'0 0.0
2017-Aug-11 01:00N 37°56' E 023°39'0 0.0
2017-Aug-11 00:30N 37°56' E 023°39'0 0.0
2017-Aug-11 00:00N 37°56' E 023°39'0 0.0
2017-Aug-10 23:31N 37°56' E 023°39'0 0.0
2017-Aug-10 23:00N 37°56' E 023°39'0 0.0
2017-Aug-10 22:30N 37°56' E 023°39'0 0.0
2017-Aug-10 22:00N 37°56' E 023°39'0 0.0
2017-Aug-10 21:30N 37°56' E 023°39'0 0.0
2017-Aug-10 21:00N 37°56' E 023°39'0 0.0
2017-Aug-10 20:30N 37°56' E 023°39'0 0.0
2017-Aug-10 20:00N 37°56' E 023°39'0 0.0
2017-Aug-10 19:30N 37°56' E 023°39'0 0.0
2017-Aug-10 19:00N 37°56' E 023°39'0 0.0
2017-Aug-10 18:30N 37°56' E 023°39'0 0.0
2017-Aug-10 18:00N 37°56' E 023°39'0 0.0
2017-Aug-10 17:30N 37°56' E 023°39'0 0.0
2017-Aug-10 17:00N 37°56' E 023°39'1 1.1
2017-Aug-10 16:30N 37°55' E 023°39'5 9.0
2017-Aug-10 16:01N 37°51' E 023°37'4 8.6
2017-Aug-10 15:30N 37°47' E 023°35'3 6.3
2017-Aug-10 15:00N 37°45' E 023°33'0 0.0
2017-Aug-10 14:30N 37°45' E 023°33'0 0.0
2017-Aug-10 14:00N 37°45' E 023°33'0 0.0
2017-Aug-10 13:30N 37°45' E 023°33'0 0.2
2017-Aug-10 13:00N 37°45' E 023°33'4 8.6
2017-Aug-10 12:30N 37°41' E 023°37'5 9.2
2017-Aug-10 12:00N 37°38' E 023°41'55 7.1
2017-Aug-10 04:12N 37°18' E 024°46'2 8.4
2017-Aug-10 04:00N 37°17' E 024°47'4 8.9
2017-Aug-10 03:30N 37°15' E 024°52'5 9.2
2017-Aug-10 03:00N 37°12' E 024°57'4 9.0
2017-Aug-10 02:30N 37°09' E 025°01'5 9.1
2017-Aug-10 02:00N 37°07' E 025°06'3 0.2
2017-Aug-09 10:34N 37°05' E 025°09'0 1.5
2017-Aug-09 10:28N 37°06' E 025°09'0 0.0
2017-Aug-09 10:00N 37°06' E 025°09'0 0.0
2017-Aug-09 09:30N 37°06' E 025°09'0 0.0
2017-Aug-09 08:38N 37°06' E 025°09'0 0.0
2017-Aug-09 08:26N 37°06' E 025°09'0 0.0
2017-Aug-09 07:20N 37°06' E 025°09'0 0.0
2017-Aug-09 04:58N 37°06' E 025°09'0 0.0
2017-Aug-09 04:25N 37°06' E 025°09'0 0.0
2017-Aug-09 03:35N 37°06' E 025°09'0 0.0
2017-Aug-09 03:25N 37°06' E 025°09'0 0.0
2017-Aug-09 02:39N 37°06' E 025°09'0 0.0
2017-Aug-09 02:29N 37°06' E 025°09'1 2.5
2017-Aug-09 02:00N 37°06' E 025°07'6 9.7
2017-Aug-09 01:23N 37°12' E 025°11'410.3
2017-Aug-09 01:01N 37°15' E 025°13'5 9.9
2017-Aug-09 00:30N 37°20' E 025°15'5 9.7
2017-Aug-09 00:00N 37°24' E 025°17'4 8.1
2017-Aug-08 23:31N 37°28' E 025°19'0 0.2
2017-Aug-08 23:01N 37°28' E 025°19'0 0.0
2017-Aug-08 22:31N 37°28' E 025°19'0 0.0
2017-Aug-08 22:01N 37°28' E 025°19'0 0.0
2017-Aug-08 21:31N 37°28' E 025°19'0 0.0
2017-Aug-08 21:00N 37°28' E 025°19'0 0.0
2017-Aug-08 20:31N 37°28' E 025°19'0 0.4
2017-Aug-08 20:01N 37°28' E 025°19'0 0.4
2017-Aug-08 19:30N 37°28' E 025°19'0 0.1
2017-Aug-08 19:00N 37°28' E 025°19'0 0.6
2017-Aug-08 18:30N 37°28' E 025°19'0 0.6
2017-Aug-08 18:00N 37°28' E 025°19'0 0.0
2017-Aug-08 17:30N 37°28' E 025°19'0 0.0
2017-Aug-08 17:01N 37°28' E 025°19'0 0.0
2017-Aug-08 16:31N 37°28' E 025°19'0 0.0
2017-Aug-08 16:01N 37°28' E 025°19'0 0.0
2017-Aug-08 15:30N 37°28' E 025°19'0 0.0
2017-Aug-08 15:00N 37°28' E 025°19'0 0.0
2017-Aug-08 14:30N 37°28' E 025°19'0 0.0
2017-Aug-08 14:00N 37°28' E 025°19'0 0.0
2017-Aug-08 13:31N 37°28' E 025°19'0 0.0
2017-Aug-08 13:01N 37°28' E 025°19'0 0.0
2017-Aug-08 12:31N 37°28' E 025°19'0 0.4
2017-Aug-08 12:01N 37°28' E 025°19'1 2.4
2017-Aug-08 11:31N 37°27' E 025°19'0 0.7
2017-Aug-08 11:00N 37°27' E 025°19'3 6.1
2017-Aug-08 10:30N 37°25' E 025°16'3 5.7
2017-Aug-08 10:00N 37°22' E 025°15'0 0.1
2017-Aug-08 09:31N 37°23' E 025°15'0 0.1
2017-Aug-08 09:00N 37°23' E 025°15'0 0.0
2017-Aug-08 08:30N 37°23' E 025°15'0 0.0
2017-Aug-08 07:59N 37°23' E 025°15'0 0.1
2017-Aug-08 07:30N 37°23' E 025°15'0 0.0
2017-Aug-08 07:01N 37°23' E 025°15'0 0.0
2017-Aug-08 06:30N 37°23' E 025°15'0 0.7
2017-Aug-08 06:01N 37°23' E 025°14'0 0.2
2017-Aug-08 05:31N 37°23' E 025°15'2 3.8
2017-Aug-08 05:00N 37°21' E 025°15'4 8.9
2017-Aug-08 04:31N 37°17' E 025°17'4 8.8
2017-Aug-08 04:00N 37°12' E 025°18'5 9.2
2017-Aug-08 03:30N 37°08' E 025°19'4 9.0
2017-Aug-08 03:01N 37°03' E 025°18'  
Track history (hours):
 
Tides and Currents Weather Stations Pressure Air Temp Water Temp Dewpoint Dewpoint Depression Visibility Wind Speed Wind Dir Waves Ship Positions

Galileo

Last reported at 2017-Aug-16 06:05 UTC. Time now 2017-Aug-16 21:47 UTC.
Position N 37°34' E 022°48'.

Length 50 m; draft 3 m.

Type: Passenger vessel. MMSI: 239299000.

Date/timePositionNaut miles runAvg speedWind from/ knotsBaromVisibWave heightAir tempDewpointWater temp
2017-Aug-16 06:05N 37°34' E 022°48'21 1.4
2017-Aug-15 15:39N 37°14' E 022°56'114 3.0
2017-Aug-14 01:40N 36°59' E 025°17'210.1
2017-Aug-14 01:30N 37°01' E 025°18'510.5
2017-Aug-14 01:00N 37°06' E 025°19'5 9.9
2017-Aug-14 00:30N 37°11' E 025°19'5 9.8
2017-Aug-14 00:00N 37°16' E 025°18'510.0
2017-Aug-13 23:30N 37°21' E 025°17'510.1
2017-Aug-13 22:59N 37°26' E 025°17'3 4.6
2017-Aug-13 22:26N 37°28' E 025°20'0 0.0
2017-Aug-13 22:00N 37°28' E 025°20'0 0.0
2017-Aug-13 21:30N 37°28' E 025°20'0 0.0
2017-Aug-13 21:00N 37°28' E 025°20'0 0.0
2017-Aug-13 20:30N 37°28' E 025°20'0 0.0
2017-Aug-13 20:00N 37°28' E 025°20'0 0.0
2017-Aug-13 19:29N 37°28' E 025°20'0 0.0
2017-Aug-13 19:00N 37°28' E 025°20'0 0.0
2017-Aug-13 18:30N 37°28' E 025°20'0 0.0
2017-Aug-13 18:00N 37°28' E 025°20'0 0.0
2017-Aug-13 17:30N 37°28' E 025°20'0 0.0
2017-Aug-13 17:00N 37°28' E 025°20'0 0.0
2017-Aug-13 16:30N 37°28' E 025°20'0 0.0
2017-Aug-13 16:00N 37°28' E 025°20'0 0.0
2017-Aug-13 15:30N 37°28' E 025°20'0 0.0
2017-Aug-13 15:00N 37°28' E 025°20'0 0.0
2017-Aug-13 14:29N 37°28' E 025°20'0 0.0
2017-Aug-13 14:00N 37°28' E 025°20'0 0.0
2017-Aug-13 13:30N 37°28' E 025°20'0 0.0
2017-Aug-13 13:00N 37°28' E 025°20'0 0.0
2017-Aug-13 12:30N 37°28' E 025°20'0 0.0
2017-Aug-13 12:00N 37°28' E 025°20'0 0.0
2017-Aug-13 11:30N 37°28' E 025°20'1 1.8
2017-Aug-13 11:00N 37°27' E 025°19'4 9.0
2017-Aug-13 10:30N 37°24' E 025°15'1 2.5
2017-Aug-13 10:00N 37°23' E 025°15'0 0.0
2017-Aug-13 09:30N 37°23' E 025°15'0 0.0
2017-Aug-13 09:00N 37°23' E 025°15'0 0.0
2017-Aug-13 08:30N 37°23' E 025°15'0 0.0
2017-Aug-13 08:00N 37°23' E 025°15'0 0.0
2017-Aug-13 07:30N 37°23' E 025°15'0 0.0
2017-Aug-13 07:00N 37°23' E 025°15'0 0.0
2017-Aug-13 06:30N 37°23' E 025°15'2 4.6
2017-Aug-13 06:00N 37°22' E 025°12'5 9.7
2017-Aug-13 05:30N 37°24' E 025°06'5 9.5
2017-Aug-13 05:00N 37°26' E 025°01'3 6.2
2017-Aug-13 04:27N 37°26' E 024°57'0 0.0
2017-Aug-12 17:31N 37°26' E 024°57'110.1
2017-Aug-12 17:26N 37°27' E 024°57'5 8.7
2017-Aug-12 16:51N 37°31' E 024°54'3 9.5
2017-Aug-12 16:30N 37°31' E 024°49'51 5.2
2017-Aug-12 06:42N 37°46' E 023°48'2 9.4
2017-Aug-12 06:30N 37°47' E 023°46'5 9.5
2017-Aug-12 06:00N 37°51' E 023°43'4 8.8
2017-Aug-12 05:30N 37°55' E 023°40'1 2.5
2017-Aug-12 05:00N 37°56' E 023°39'0 0.0
2017-Aug-12 04:31N 37°56' E 023°39'0 0.0
2017-Aug-12 04:01N 37°56' E 023°39'0 0.0
2017-Aug-12 03:31N 37°56' E 023°39'0 0.0
2017-Aug-12 03:00N 37°56' E 023°39'0 0.0
2017-Aug-12 02:31N 37°56' E 023°39'0 0.0
2017-Aug-12 02:00N 37°56' E 023°39'0 0.0
2017-Aug-12 01:31N 37°56' E 023°39'0 0.0
2017-Aug-12 01:00N 37°56' E 023°39'0 0.0
2017-Aug-12 00:30N 37°56' E 023°39'0 0.0
2017-Aug-12 00:01N 37°56' E 023°39'0 0.0
2017-Aug-11 23:30N 37°56' E 023°39'0 0.0
2017-Aug-11 23:00N 37°56' E 023°39'0 0.0
2017-Aug-11 22:31N 37°56' E 023°39'0 0.0
2017-Aug-11 22:00N 37°56' E 023°39'0 0.0
2017-Aug-11 21:30N 37°56' E 023°39'0 0.0
2017-Aug-11 21:01N 37°56' E 023°39'0 0.0
2017-Aug-11 20:30N 37°56' E 023°39'0 0.0
2017-Aug-11 20:01N 37°56' E 023°39'0 0.0
2017-Aug-11 19:30N 37°56' E 023°39'0 0.0
2017-Aug-11 19:00N 37°56' E 023°39'0 0.0
2017-Aug-11 18:30N 37°56' E 023°39'0 0.0
2017-Aug-11 18:00N 37°56' E 023°39'0 0.0
2017-Aug-11 17:30N 37°56' E 023°39'0 0.0
2017-Aug-11 17:01N 37°56' E 023°39'0 0.0
2017-Aug-11 16:30N 37°56' E 023°39'0 0.0
2017-Aug-11 16:01N 37°56' E 023°39'0 0.0
2017-Aug-11 15:31N 37°56' E 023°39'0 0.0
2017-Aug-11 15:00N 37°56' E 023°39'0 0.0
2017-Aug-11 14:30N 37°56' E 023°39'0 0.0
2017-Aug-11 13:31N 37°56' E 023°39'0 0.0
2017-Aug-11 13:01N 37°56' E 023°39'0 0.0
2017-Aug-11 12:31N 37°56' E 023°39'0 0.0
2017-Aug-11 12:01N 37°56' E 023°39'0 0.0
2017-Aug-11 11:30N 37°56' E 023°39'0 0.0
2017-Aug-11 11:00N 37°56' E 023°39'0 0.0
2017-Aug-11 10:31N 37°56' E 023°39'0 0.0
2017-Aug-11 10:00N 37°56' E 023°39'0 0.0
2017-Aug-11 09:30N 37°56' E 023°39'0 0.0
2017-Aug-11 09:00N 37°56' E 023°39'0 0.0
2017-Aug-11 08:30N 37°56' E 023°39'0 0.0
2017-Aug-11 08:00N 37°56' E 023°39'0 0.0
2017-Aug-11 07:30N 37°56' E 023°39'0 0.0
2017-Aug-11 07:00N 37°56' E 023°39'0 0.0
2017-Aug-11 06:30N 37°56' E 023°39'0 0.0
2017-Aug-11 06:00N 37°56' E 023°39'0 0.0
2017-Aug-11 05:30N 37°56' E 023°39'0 0.0
2017-Aug-11 05:00N 37°56' E 023°39'0 0.0
2017-Aug-11 04:31N 37°56' E 023°39'0 0.0
2017-Aug-11 04:00N 37°56' E 023°39'0 0.0
2017-Aug-11 03:30N 37°56' E 023°39'0 0.0
2017-Aug-11 03:00N 37°56' E 023°39'0 0.0
2017-Aug-11 02:30N 37°56' E 023°39'0 0.0
2017-Aug-11 02:00N 37°56' E 023°39'0 0.0
2017-Aug-11 01:30N 37°56' E 023°39'0 0.0
2017-Aug-11 01:00N 37°56' E 023°39'0 0.0
2017-Aug-11 00:30N 37°56' E 023°39'0 0.0
2017-Aug-11 00:00N 37°56' E 023°39'0 0.0
2017-Aug-10 23:31N 37°56' E 023°39'0 0.0
2017-Aug-10 23:00N 37°56' E 023°39'0 0.0
2017-Aug-10 22:30N 37°56' E 023°39'0 0.0
2017-Aug-10 22:00N 37°56' E 023°39'0 0.0
2017-Aug-10 21:30N 37°56' E 023°39'0 0.0
2017-Aug-10 21:00N 37°56' E 023°39'0 0.0
2017-Aug-10 20:30N 37°56' E 023°39'0 0.0
2017-Aug-10 20:00N 37°56' E 023°39'0 0.0
2017-Aug-10 19:30N 37°56' E 023°39'0 0.0
2017-Aug-10 19:00N 37°56' E 023°39'0 0.0
2017-Aug-10 18:30N 37°56' E 023°39'0 0.0
2017-Aug-10 18:00N 37°56' E 023°39'0 0.0
2017-Aug-10 17:30N 37°56' E 023°39'0 0.0
2017-Aug-10 17:00N 37°56' E 023°39'1 1.1
2017-Aug-10 16:30N 37°55' E 023°39'5 9.0
2017-Aug-10 16:01N 37°51' E 023°37'4 8.6
2017-Aug-10 15:30N 37°47' E 023°35'3 6.3
2017-Aug-10 15:00N 37°45' E 023°33'0 0.0
2017-Aug-10 14:30N 37°45' E 023°33'0 0.0
2017-Aug-10 14:00N 37°45' E 023°33'0 0.0
2017-Aug-10 13:30N 37°45' E 023°33'0 0.2
2017-Aug-10 13:00N 37°45' E 023°33'4 8.6
2017-Aug-10 12:30N 37°41' E 023°37'5 9.2
2017-Aug-10 12:00N 37°38' E 023°41'55 7.1
2017-Aug-10 04:12N 37°18' E 024°46'2 8.4
2017-Aug-10 04:00N 37°17' E 024°47'4 8.9
2017-Aug-10 03:30N 37°15' E 024°52'5 9.2
2017-Aug-10 03:00N 37°12' E 024°57'4 9.0
2017-Aug-10 02:30N 37°09' E 025°01'5 9.1
2017-Aug-10 02:00N 37°07' E 025°06'3 0.2
2017-Aug-09 10:34N 37°05' E 025°09'0 1.5
2017-Aug-09 10:28N 37°06' E 025°09'0 0.0
2017-Aug-09 10:00N 37°06' E 025°09'0 0.0
2017-Aug-09 09:30N 37°06' E 025°09'0 0.0
2017-Aug-09 08:38N 37°06' E 025°09'0 0.0
2017-Aug-09 08:26N 37°06' E 025°09'0 0.0
2017-Aug-09 07:20N 37°06' E 025°09'0 0.0
2017-Aug-09 04:58N 37°06' E 025°09'0 0.0
2017-Aug-09 04:25N 37°06' E 025°09'0 0.0
2017-Aug-09 03:35N 37°06' E 025°09'0 0.0
2017-Aug-09 03:25N 37°06' E 025°09'0 0.0
2017-Aug-09 02:39N 37°06' E 025°09'0 0.0
2017-Aug-09 02:29N 37°06' E 025°09'1 2.5
2017-Aug-09 02:00N 37°06' E 025°07'6 9.7
2017-Aug-09 01:23N 37°12' E 025°11'410.3
2017-Aug-09 01:01N 37°15' E 025°13'5 9.9
2017-Aug-09 00:30N 37°20' E 025°15'5 9.7
2017-Aug-09 00:00N 37°24' E 025°17'4 8.1
2017-Aug-08 23:31N 37°28' E 025°19'0 0.2
2017-Aug-08 23:01N 37°28' E 025°19'0 0.0
2017-Aug-08 22:31N 37°28' E 025°19'0 0.0
2017-Aug-08 22:01N 37°28' E 025°19'0 0.0
2017-Aug-08 21:31N 37°28' E 025°19'0 0.0
2017-Aug-08 21:00N 37°28' E 025°19'0 0.0
2017-Aug-08 20:31N 37°28' E 025°19'0 0.4
2017-Aug-08 20:01N 37°28' E 025°19'0 0.4
2017-Aug-08 19:30N 37°28' E 025°19'0 0.1
2017-Aug-08 19:00N 37°28' E 025°19'0 0.6
2017-Aug-08 18:30N 37°28' E 025°19'0 0.6
2017-Aug-08 18:00N 37°28' E 025°19'0 0.0
2017-Aug-08 17:30N 37°28' E 025°19'0 0.0
2017-Aug-08 17:01N 37°28' E 025°19'0 0.0
2017-Aug-08 16:31N 37°28' E 025°19'0 0.0
2017-Aug-08 16:01N 37°28' E 025°19'0 0.0
2017-Aug-08 15:30N 37°28' E 025°19'0 0.0
2017-Aug-08 15:00N 37°28' E 025°19'0 0.0
2017-Aug-08 14:30N 37°28' E 025°19'0 0.0
2017-Aug-08 14:00N 37°28' E 025°19'0 0.0
2017-Aug-08 13:31N 37°28' E 025°19'0 0.0
2017-Aug-08 13:01N 37°28' E 025°19'0 0.0
2017-Aug-08 12:31N 37°28' E 025°19'0 0.4
2017-Aug-08 12:01N 37°28' E 025°19'1 2.4
2017-Aug-08 11:31N 37°27' E 025°19'0 0.7
2017-Aug-08 11:00N 37°27' E 025°19'3 6.1
2017-Aug-08 10:30N 37°25' E 025°16'3 5.7
2017-Aug-08 10:00N 37°22' E 025°15'0 0.1
2017-Aug-08 09:31N 37°23' E 025°15'0 0.1
2017-Aug-08 09:00N 37°23' E 025°15'0 0.0
2017-Aug-08 08:30N 37°23' E 025°15'0 0.0
2017-Aug-08 07:59N 37°23' E 025°15'0 0.1
2017-Aug-08 07:30N 37°23' E 025°15'0 0.0
2017-Aug-08 07:01N 37°23' E 025°15'0 0.0
2017-Aug-08 06:30N 37°23' E 025°15'0 0.7
2017-Aug-08 06:01N 37°23' E 025°14'0 0.2
2017-Aug-08 05:31N 37°23' E 025°15'2 3.8
2017-Aug-08 05:00N 37°21' E 025°15'4 8.9
2017-Aug-08 04:31N 37°17' E 025°17'4 8.8
2017-Aug-08 04:00N 37°12' E 025°18'5 9.2
2017-Aug-08 03:30N 37°08' E 025°19'4 9.0
2017-Aug-08 03:01N 37°03' E 025°18'  

Dump ship's entire track history